Latest Coastal Weather Observations for Port Kembla Harbour

IDN60701

Issued at 6:42 pm EST Sunday 25 September 2016 (issued every 10 minutes, with the page automatically refreshed every 10 minutes)

About coastal observations | Map of coastal stations | Coastal observations for NSW | Marine services | Other Formats
Station Details ID: 068253 Name: PORT KEMBLA NTC AWS Lat: -34.47 Lon: 150.91 Height: 0.0 m
Data from the previous 72 hours. | See also: Recent months for locations in New South Wales
Date/Time
EST
Temp
°C
Wind Pressure Rain since
9am
mm
Weather Cloud Vis
km
Sea
Height
m
Swell
Dir  Spd
kts
Gust
kts
hPa Trend Height
m
Period
s
Dir
25/06:30pm 15.0 W 6 8 1009.0 - - - - - - - - -
25/06:00pm 15.3 WSW 7 9 1008.5 - - - - - - - - -
25/05:30pm 15.6 SW 8 11 1008.3 - - - - - - - - -
25/05:00pm 16.2 SW 8 12 1008.0 - - - - - - - - -
25/04:30pm 16.4 SW 10 18 1007.5 - - - - - - - - -
25/04:00pm 17.6 SSW 6 15 1006.9 - - - - - - - - -
25/03:30pm 17.4 S 6 13 1006.3 - - - - - - - - -
25/03:00pm 17.9 WSW 2 7 1005.9 - - - - - - - - -
25/02:30pm 17.2 NW 3 4 1005.6 - - - - - - - - -
25/02:00pm 17.0 WSW 9 15 1005.8 - - - - - - - - -
25/01:30pm 16.3 SSE 4 8 1005.0 - - - - - - - - -
25/01:00pm 18.0 S 7 12 1005.0 - - - - - - - - -
25/12:30pm 19.0 SE 9 13 1004.4 - - - - - - - - -
25/12:00pm 18.7 ESE 7 9 1004.3 - - - - - - - - -
25/11:30am 18.7 SE 7 9 1004.4 - - - - - - - - -
25/11:00am 19.2 WSW 8 12 1004.6 - - - - - - - - -
25/10:30am 18.8 WSW 8 12 1004.8 - - - - - - - - -
25/10:00am 18.6 WNW 10 14 1004.9 - - - - - - - - -
25/09:30am 18.7 W 8 14 1005.0 - - - - - - - - -
25/09:00am 18.8 W 7 13 1005.2 - - - - - - - - -
25/08:30am 18.3 WNW 8 12 1005.3 - - - - - - - - -
25/08:00am 17.9 W 6 9 1005.5 - - - - - - - - -
25/07:30am 17.6 W 7 9 1005.5 - - - - - - - - -
25/07:00am 17.8 W 6 8 1005.4 - - - - - - - - -
25/06:30am 17.7 NNW 2 4 1005.3 - - - - - - - - -
25/06:00am 18.0 WNW 4 6 1005.2 - - - - - - - - -
25/05:30am 18.0 WNW 3 6 1005.0 - - - - - - - - -
25/05:00am 17.9 WNW 5 7 1004.9 - - - - - - - - -
25/04:30am 17.8 E 2 4 1004.7 - - - - - - - - -
25/04:00am 17.9 WSW 3 6 1004.9 - - - - - - - - -
25/03:30am 17.3 NNE 2 4 1005.1 - - - - - - - - -
25/03:00am 16.8 W 4 5 1005.0 - - - - - - - - -
25/02:30am 16.6 W 5 6 1004.9 - - - - - - - - -
25/02:00am 16.6 WSW 4 5 1004.7 - - - - - - - - -
25/01:30am 16.9 WSW 3 5 1005.4 - - - - - - - - -
25/01:00am 16.7 W 4 5 1006.1 - - - - - - - - -
25/12:30am 16.7 SW 3 5 1006.5 - - - - - - - - -
25/12:00am 16.6 WSW 4 5 1006.7 - - - - - - - - -
 
Date/Time
EST
Temp
°C
Wind Pressure Rain since
9am
mm
Weather Cloud Vis
km
Sea
Height
m
Swell
Dir  Spd
kts
Gust
kts
hPa Trend Height
m
Period
s
Dir
24/11:30pm 16.9 SW 3 4 1006.6 - - - - - - - - -
24/11:00pm 17.1 WSW 5 7 1007.3 - - - - - - - - -
24/10:30pm 17.5 W 4 7 1007.4 - - - - - - - - -
24/10:00pm 17.6 WSW 3 5 1007.5 - - - - - - - - -
24/09:30pm 17.4 WSW 5 7 1008.0 - - - - - - - - -
24/09:00pm 17.2 SW 5 6 1007.8 - - - - - - - - -
24/08:30pm 17.7 W 5 8 1008.0 - - - - - - - - -
24/08:00pm 17.9 N 3 5 1007.8 - - - - - - - - -
24/07:30pm 17.9 NW 3 4 1007.8 - - - - - - - - -
24/07:00pm 18.1 NW 4 6 1007.7 - - - - - - - - -
24/06:30pm 18.0 N 4 6 1007.6 - - - - - - - - -
24/06:00pm 18.0 N 4 5 1007.5 - - - - - - - - -
24/05:30pm 18.1 NNE 5 7 1007.1 - - - - - - - - -
24/05:00pm 18.3 NE 4 6 1007.2 - - - - - - - - -
24/04:30pm 18.2 NE 4 6 1007.3 - - - - - - - - -
24/04:00pm 18.3 NE 5 6 1007.3 - - - - - - - - -
24/03:30pm 18.4 NE 5 6 1007.3 - - - - - - - - -
24/03:00pm 18.4 ENE 4 6 1007.5 - - - - - - - - -
24/02:30pm 18.1 ENE 5 7 1007.6 - - - - - - - - -
24/02:00pm 18.2 E 5 7 1008.0 - - - - - - - - -
24/01:30pm 18.2 E 4 7 1008.4 - - - - - - - - -
24/01:00pm 17.9 ESE 5 7 1008.9 - - - - - - - - -
24/12:30pm 18.1 ESE 6 8 1009.1 - - - - - - - - -
24/12:00pm 17.9 ESE 6 9 1009.5 - - - - - - - - -
24/11:30am 17.7 ESE 6 8 1010.1 - - - - - - - - -
24/11:00am 18.1 SE 5 7 1010.4 - - - - - - - - -
24/10:30am 17.6 SE 6 7 1010.9 - - - - - - - - -
24/10:00am 17.4 SE 6 9 1011.3 - - - - - - - - -
24/09:30am 17.4 S 4 8 1011.8 - - - - - - - - -
24/09:00am 17.3 SSW 5 8 1011.9 - - - - - - - - -
24/08:30am 16.9 SW 4 8 1011.9 - - - - - - - - -
24/08:00am 16.6 WSW 3 6 1011.9 - - - - - - - - -
24/07:30am 16.0 W 5 7 1012.0 - - - - - - - - -
24/07:00am 14.9 W 5 6 1011.9 - - - - - - - - -
24/06:30am 13.9 W 6 7 1011.5 - - - - - - - - -
24/06:00am 13.6 W 4 5 1011.3 - - - - - - - - -
24/05:30am 13.4 WSW 2 3 1011.1 - - - - - - - - -
24/05:00am 13.8 WSW 3 5 1011.0 - - - - - - - - -
24/04:30am 14.2 WSW 4 5 1010.9 - - - - - - - - -
24/04:00am 14.4 WSW 3 5 1010.9 - - - - - - - - -
24/03:30am 14.6 W 4 6 1010.9 - - - - - - - - -
24/03:00am 15.1 WSW 4 5 1010.8 - - - - - - - - -
24/02:30am 15.2 WSW 5 8 1010.9 - - - - - - - - -
24/02:00am 14.6 WSW 5 6 1011.0 - - - - - - - - -
24/01:30am 14.7 WSW 4 6 1011.1 - - - - - - - - -
24/01:00am 14.8 W 4 6 1011.2 - - - - - - - - -
24/12:30am 14.6 SW 4 5 1011.4 - - - - - - - - -
24/12:00am 14.8 WSW 3 4 1011.6 - - - - - - - - -
 
Date/Time
EST
Temp
°C
Wind Pressure Rain since
9am
mm
Weather Cloud Vis
km
Sea
Height
m
Swell
Dir  Spd
kts
Gust
kts
hPa Trend Height
m
Period
s
Dir
23/11:30pm 16.0 WSW 5 7 1011.6 - - - - - - - - -
23/11:00pm 16.3 SW 7 11 1011.7 - - - - - - - - -
23/10:30pm 16.4 SW 8 11 1011.9 - - - - - - - - -
23/10:00pm 16.3 SW 7 13 1012.0 - - - - - - - - -
23/09:30pm 16.4 SW 7 11 1012.1 - - - - - - - - -
23/09:00pm 16.5 SW 7 11 1011.9 - - - - - - - - -
23/08:30pm 16.6 SW 7 11 1012.1 - - - - - - - - -
23/08:00pm 16.7 SW 7 11 1012.0 - - - - - - - - -
23/07:30pm 16.7 SW 5 7 1012.0 - - - - - - - - -
23/07:00pm 16.9 SW 6 9 1011.8 - - - - - - - - -
23/06:30pm 17.1 SW 7 11 1011.6 - - - - - - - - -
23/06:00pm 17.6 SSW 8 13 1011.2 - - - - - - - - -
23/05:30pm 18.0 SSW 8 16 1010.8 - - - - - - - - -
23/05:00pm 18.2 SSW 7 15 1010.5 - - - - - - - - -
23/04:30pm 18.8 S 7 14 1010.3 - - - - - - - - -
23/04:00pm 18.7 SSW 9 16 1010.2 - - - - - - - - -
23/03:30pm 18.6 SSW 8 16 1010.2 - - - - - - - - -
23/03:00pm 19.3 SW 11 22 1010.3 - - - - - - - - -
23/02:30pm 19.0 SW 13 23 1010.6 - - - - - - - - -
23/02:00pm 19.1 SSW 11 22 1010.3 - - - - - - - - -
23/01:30pm 19.4 SSW 13 23 1010.3 - - - - - - - - -
23/01:00pm 18.5 SW 11 17 1010.6 - - - - - - - - -
23/12:30pm 19.2 SSW 12 21 1010.7 - - - - - - - - -
23/12:00pm 19.0 SW 16 27 1010.9 - - - - - - - - -
23/11:30am 19.0 SW 16 31 1011.2 - - - - - - - - -
23/11:02am 18.3 SW 15 27 1011.2 - - - - - - - - -
23/11:00am 18.7 SW 13 27 1011.2 - - - - - - - - -
23/10:41am 18.7 SW 16 26 1011.0 - - - - - - - - -
23/10:30am 18.3 SW 14 22 1011.0 - - - - - - - - -
23/10:00am 17.6 SW 14 21 1011.5 - - - - - - - - -
23/09:30am 17.4 SW 14 23 1011.5 - - - - - - - - -
23/09:19am 17.4 SW 15 27 1011.5 - - - - - - - - -
23/09:00am 17.0 SW 16 23 1011.5 - - - - - - - - -
23/08:52am 17.0 WSW 15 25 1011.4 - - - - - - - - -
23/08:30am 16.8 WSW 14 20 1011.4 - - - - - - - - -
23/08:00am 16.4 WSW 14 24 1011.3 - - - - - - - - -
23/07:37am 16.3 WSW 15 29 1011.3 - - - - - - - - -
23/07:30am 16.2 WSW 14 23 1011.2 - - - - - - - - -
23/07:00am 16.0 WSW 15 24 1011.0 - - - - - - - - -
23/06:30am 16.1 WSW 15 25 1010.6 - - - - - - - - -
23/06:00am 16.4 SW 14 22 1010.3 - - - - - - - - -
23/05:30am 16.4 SW 12 18 1009.6 - - - - - - - - -
23/05:00am 16.3 SW 12 18 1009.3 - - - - - - - - -

Other Formats:

Comma delimited format used in spreadsheet applications
http://www.bom.gov.au/fwo/IDN60701/IDN60701.95745.axf

JavaScript Object Notation format (JSON) in row-major order
http://www.bom.gov.au/fwo/IDN60701/IDN60701.95745.json